Wetterdaten: April 2012
Datum Temp Feuchte Luftdruck Regen Wind Richtung Sonnenschein UV Solar Windben
01.04.2012 3,7 C 79 % 1015,3 hPa 0,0 l/m 5,0 km/h W-NW 2,17 h 1,6 UV-I 192 W/m 16,9 km/h
02.04.2012 4,3 C 91 % 1009,4 hPa 0,2 l/m 0,3 km/h W 0,17 h 0,9 UV-I 100 W/m 4,8 km/h
03.04.2012 8,4 C 79 % 1003,0 hPa 0,2 l/m 0,4 km/h N-NO 4,42 h 1,6 UV-I 248 W/m 4,4 km/h
04.04.2012 5,5 C 91 % 1009,5 hPa 1,6 l/m 2,0 km/h N-NO 1,33 h 1,4 UV-I 162 W/m 9,7 km/h
05.04.2012 3,7 C 93 % 1017,1 hPa 0,0 l/m 3,5 km/h N-NO 0,00 h 0,9 UV-I 92 W/m 10,1 km/h
06.04.2012 4,4 C 76 % 1009,9 hPa 0,0 l/m 1,8 km/h W-NW 2,15 h 1,0 UV-I 161 W/m 7,7 km/h
07.04.2012 2,2 C 69 % 1007,2 hPa 2,2 l/m 0,7 km/h N-NW 4,05 h 1,4 UV-I 228 W/m 7,2 km/h
08.04.2012 0,4 C 74 % 1013,5 hPa 0,0 l/m 0,1 km/h NW 6,93 h 1,7 UV-I 305 W/m 1,6 km/h
09.04.2012 4,9 C 94 % 1002,1 hPa 7,4 l/m 11,4 km/h S 0,00 h 0,9 UV-I 100 W/m 21,3 km/h
10.04.2012 10,1 C 83 % 994,7 hPa 0,6 l/m 16,8 km/h S 1,25 h 1,3 UV-I 146 W/m 26,1 km/h
11.04.2012 6,8 C 82 % 999,1 hPa 0,8 l/m 1,1 km/h NW 4,75 h 1,7 UV-I 252 W/m 6,0 km/h
12.04.2012 5,7 C 87 % 1001,7 hPa 1,8 l/m 1,0 km/h S 4,33 h 1,7 UV-I 288 W/m 8,4 km/h
13.04.2012 4,9 C 87 % 1004,7 hPa 0,2 l/m 1,1 km/h W 4,17 h 1,6 UV-I 252 W/m 4,0 km/h
14.04.2012 6,9 C 81 % 1004,9 hPa 0,6 l/m 0,3 km/h N-NO 6,50 h 1,8 UV-I 300 W/m 2,0 km/h
15.04.2012 6,3 C 81 % 1011,3 hPa 0,0 l/m 8,8 km/h N 5,33 h 2,0 UV-I 264 W/m 20,1 km/h
16.04.2012 2,9 C 80 % 1018,8 hPa 0,4 l/m 3,3 km/h N-NW 3,83 h 1,7 UV-I 268 W/m 10,4 km/h
17.04.2012 4,8 C 65 % 1007,2 hPa 0,0 l/m 7,7 km/h S-SO 9,00 h 2,1 UV-I 361 W/m 14,1 km/h
18.04.2012 8,5 C 66 % 994,5 hPa 0,0 l/m 8,1 km/h S-SO 4,98 h 2,1 UV-I 317 W/m 13,3 km/h
19.04.2012 8,6 C 77 % 992,1 hPa 0,0 l/m 8,1 km/h S-SO 4,83 h 1,9 UV-I 291 W/m 12,9 km/h
20.04.2012 6,3 C 84 % 996,7 hPa 0,0 l/m 0,0 km/h S 5,08 h 1,4 UV-I 250 W/m 0,0 km/h
21.04.2012 5,6 C 86 % 999,5 hPa 2,4 l/m 3,5 km/h S 4,00 h 1,3 UV-I 200 W/m 7,7 km/h
22.04.2012 5,5 C 89 % 1005,7 hPa 4,0 l/m 9,8 km/h S-SW 3,17 h 1,5 UV-I 195 W/m 23,3 km/h
23.04.2012 7,1 C 80 % 1001,6 hPa 0,2 l/m 7,9 km/h S-SO 6,42 h 2,0 UV-I 333 W/m 14,5 km/h
24.04.2012 8,1 C 85 % 996,5 hPa 1,2 l/m 4,4 km/h S-SO 2,17 h 1,6 UV-I 212 W/m 10,9 km/h
25.04.2012 10,0 C 75 % 1001,4 hPa 0,4 l/m 9,2 km/h S-SO 4,17 h 2,1 UV-I 287 W/m 23,7 km/h
26.04.2012 11,0 C 76 % 1007,3 hPa 2,4 l/m 8,2 km/h S 1,17 h 1,7 UV-I 192 W/m 18,5 km/h
27.04.2012 12,5 C 72 % 1016,1 hPa 0,0 l/m 1,6 km/h S 4,50 h 2,5 UV-I 276 W/m 4,4 km/h
28.04.2012 19,3 C 61 % 1011,8 hPa 0,4 l/m 7,3 km/h N-NO 8,42 h 2,5 UV-I 356 W/m 16,5 km/h
29.04.2012 15,4 C 79 % 1007,2 hPa 0,0 l/m 2,0 km/h N-NW 2,25 h 1,5 UV-I 187 W/m 4,8 km/h
30.04.2012 17,0 C 65 % 1016,1 hPa 0,0 l/m 3,2 km/h N-NO 8,07 h 2,8 UV-I 395 W/m 14,9 km/h
Min-Datum 08.04.12 28.04.12 19.04.12 18 Tage 01.04.12 - - - - 01.04.12
Min-Zeit 05:35 15:40 05:30 - 00:00 - - - - 00:00
Minimum -4,6 C 33 % 990,3 hPa - 0,0 km/h - - - - 0,0 km/h
Max-Datum 28.04.12 04.04.12 16.04.12 09.04.12 26.04.12 - 17.04.12 27.04.12 23.04.12 26.04.12
Max-Zeit 15:30 06:50 22:15 06:10 13:51 - 19:05 14:10 13:50 13:51
Maximum 27,1 C 100 % 1019,6 hPa 7,4 l/m 34,1 km/h
S
- 8,92 h 5,9 UV-I 1129 W/m 51,5 km/h
S
Durchschnitt 7,4 C 79 % 1005,9 hPa #27,0 l/m 4,6 km/h S #119:36 h 1,7 UV-I 240 W/m 11,3 km/h

Durchschnitt Minimum Temp.2,9 C
Durchschnitt Maximum Temp.12,3 C